Time;durP1;ratioP1;P1;durP2;ratioP2;P2;SDS_P1;SDS_P2;PMS_P1;PMS_P2;Temp;Humidity;BMP_temperature;BMP_pressure;BME280_temperature;BME280_humidity;BME280_pressure;Samples;Min_cycle;Max_cycle;Signal;HPM_P1;HPM_P2
2022/06/12 00:00:40;;;;;;;0.20;0.00;;;24.30;99.90;;;;;;21112105;28;20300;-72
2022/06/12 00:10:50;;;;;;;0.20;0.00;;;23.90;99.90;;;;;;21134904;28;20222;-74
2022/06/12 00:31:13;;;;;;;0.20;0.00;;;23.90;99.90;;;;;;21143099;28;20251;-73
2022/06/12 00:41:18;;;;;;;0.20;0.00;;;24.30;99.90;;;;;;21157238;28;20237;-72
2022/06/12 00:51:23;;;;;;;0.20;0.00;;;24.30;99.90;;;;;;21155771;28;20196;-72
2022/06/12 01:01:31;;;;;;;0.20;0.00;;;24.10;99.90;;;;;;21139010;28;20273;-73
2022/06/12 01:11:39;;;;;;;0.20;0.00;;;23.90;99.90;;;;;;21136872;28;20196;-72
2022/06/12 01:22:12;;;;;;;0.20;0.00;;;23.70;99.90;;;;;;21124188;28;20302;-71
2022/06/12 01:32:23;;;;;;;0.20;0.00;;;23.40;99.90;;;;;;21183397;28;20216;-72
2022/06/12 01:42:32;;;;;;;0.20;0.00;;;23.40;99.90;;;;;;21152790;28;20279;-72
2022/06/12 01:52:54;;;;;;;0.20;0.00;;;23.00;99.90;;;;;;21152300;28;20223;-73
2022/06/12 02:03:06;;;;;;;0.20;0.00;;;23.10;99.90;;;;;;21151501;28;20231;-73
2022/06/12 02:13:16;;;;;;;0.20;0.00;;;23.90;99.90;;;;;;21149043;28;20214;-72
2022/06/12 02:23:25;;;;;;;0.20;0.00;;;23.90;99.90;;;;;;21148479;28;20234;-71
2022/06/12 02:33:35;;;;;;;0.20;0.00;;;24.10;99.90;;;;;;21149435;28;20223;-72
2022/06/12 02:43:42;;;;;;;0.20;0.00;;;24.20;99.90;;;;;;21148467;28;20239;-73
2022/06/12 02:53:59;;;;;;;0.20;0.00;;;24.40;99.90;;;;;;21127724;28;20260;-73
2022/06/12 03:04:09;;;;;;;0.20;0.00;;;24.40;99.90;;;;;;21144798;28;20246;-72
2022/06/12 03:14:19;;;;;;;0.20;0.00;;;24.20;99.90;;;;;;21150842;28;21442;-72
2022/06/12 03:24:32;;;;;;;0.20;0.05;;;23.80;99.90;;;;;;21145273;28;20247;-72
2022/06/12 03:34:46;;;;;;;0.20;0.00;;;23.60;99.90;;;;;;21124598;28;20730;-73
2022/06/12 03:44:57;;;;;;;0.20;0.00;;;23.30;99.90;;;;;;21124568;28;20283;-73
2022/06/12 03:55:09;;;;;;;0.20;0.10;;;23.30;99.90;;;;;;21140768;28;20215;-73
2022/06/12 04:05:20;;;;;;;0.20;0.00;;;22.90;99.90;;;;;;21123775;28;20231;-73
2022/06/12 04:15:30;;;;;;;0.20;0.00;;;22.60;99.90;;;;;;21051605;28;20232;-73
2022/06/12 04:25:41;;;;;;;0.20;0.00;;;22.50;99.90;;;;;;21073651;28;20238;-73
2022/06/12 04:35:51;;;;;;;0.20;0.00;;;24.10;99.90;;;;;;21207345;28;20222;-72
2022/06/12 04:45:55;;;;;;;0.20;0.00;;;24.40;99.90;;;;;;21205728;28;20234;-71
2022/06/12 04:56:01;;;;;;;0.20;0.00;;;24.20;99.90;;;;;;21223990;28;20203;-71
2022/06/12 05:06:06;;;;;;;0.20;0.00;;;24.30;99.90;;;;;;21208861;28;21126;-71
2022/06/12 05:16:21;;;;;;;0.20;0.00;;;24.30;99.90;;;;;;21238583;28;20235;-72
2022/06/12 05:26:26;;;;;;;0.20;0.10;;;24.70;99.90;;;;;;21205863;28;20207;-72
2022/06/12 05:36:31;;;;;;;0.20;0.00;;;24.80;99.90;;;;;;21134449;28;20218;-71
2022/06/12 05:46:35;;;;;;;0.20;0.00;;;24.80;99.90;;;;;;21134330;28;20243;-67
2022/06/12 05:56:40;;;;;;;0.20;0.00;;;25.10;99.90;;;;;;21134349;28;20192;-72
2022/06/12 06:06:48;;;;;;;0.20;0.00;;;25.40;99.90;;;;;;21149897;28;20266;-71
2022/06/12 06:16:53;;;;;;;0.20;0.00;;;25.80;99.90;;;;;;21129482;28;20231;-72
2022/06/12 06:26:57;;;;;;;0.20;0.00;;;26.20;99.90;;;;;;21148208;28;20215;-72
2022/06/12 06:37:02;;;;;;;0.20;0.00;;;26.30;99.90;;;;;;21147466;28;20260;-72
2022/06/12 06:47:07;;;;;;;0.20;0.10;;;26.50;99.90;;;;;;21126361;28;20220;-73
2022/06/12 06:57:12;;;;;;;0.20;0.00;;;26.70;99.90;;;;;;21145688;28;20256;-71
2022/06/12 07:07:16;;;;;;;0.20;0.00;;;26.90;99.90;;;;;;21155415;28;20283;-72
2022/06/12 07:17:21;;;;;;;0.20;0.00;;;26.70;99.90;;;;;;21226534;28;20254;-72
2022/06/12 07:27:25;;;;;;;0.20;0.10;;;26.80;99.90;;;;;;21225541;28;20250;-73
2022/06/12 07:37:31;;;;;;;0.20;0.00;;;27.00;99.90;;;;;;21225439;28;20226;-74
2022/06/12 07:47:34;;;;;;;0.20;0.00;;;26.90;99.90;;;;;;21206217;28;20239;-73
2022/06/12 07:57:40;;;;;;;0.20;0.00;;;27.00;99.90;;;;;;21203638;28;20290;-71
2022/06/12 08:07:44;;;;;;;0.20;0.10;;;27.30;99.90;;;;;;21157401;28;20287;-72
2022/06/12 08:17:49;;;;;;;0.20;0.10;;;27.40;99.90;;;;;;21136361;28;20243;-74
2022/06/12 08:27:53;;;;;;;0.20;0.00;;;27.30;99.90;;;;;;21136212;28;20287;-73
2022/06/12 08:37:59;;;;;;;0.20;0.10;;;27.40;99.90;;;;;;21135429;28;20257;-72
2022/06/12 08:48:12;;;;;;;0.20;0.00;;;26.90;99.90;;;;;;21154072;28;20239;-72
2022/06/12 08:58:24;;;;;;;0.20;0.00;;;27.00;99.90;;;;;;21152540;28;20214;-72
2022/06/12 09:08:32;;;;;;;0.20;0.00;;;27.30;99.90;;;;;;21171509;28;20222;-73
2022/06/12 09:18:47;;;;;;;0.20;0.00;;;27.00;99.90;;;;;;21234897;28;20251;-72
2022/06/12 09:29:01;;;;;;;0.20;0.00;;;27.60;99.90;;;;;;21235656;28;20217;-73
2022/06/12 09:39:16;;;;;;;0.20;0.10;;;27.50;99.90;;;;;;21233335;28;20230;-73
2022/06/12 09:49:35;;;;;;;0.20;0.00;;;27.30;99.90;;;;;;21214965;28;20210;-71
2022/06/12 09:59:49;;;;;;;0.20;0.10;;;27.40;99.90;;;;;;21229082;28;20219;-73
2022/06/12 10:09:57;;;;;;;0.20;0.00;;;27.10;99.90;;;;;;21231264;28;20214;-72
2022/06/12 10:20:09;;;;;;;0.20;0.00;;;27.30;99.90;;;;;;21229027;28;20333;-72
2022/06/12 10:30:27;;;;;;;0.20;0.00;;;27.20;99.90;;;;;;21210878;28;20258;-74
2022/06/12 10:40:34;;;;;;;0.20;0.00;;;27.90;99.90;;;;;;21211045;28;20226;-69
2022/06/12 10:50:51;;;;;;;0.20;0.00;;;28.50;99.90;;;;;;21208021;28;20200;-71
2022/06/12 11:01:03;;;;;;;0.20;0.00;;;29.20;99.90;;;;;;21208749;28;20234;-71
2022/06/12 11:11:15;;;;;;;0.20;0.00;;;29.80;99.90;;;;;;21193949;28;20252;-77
2022/06/12 11:21:29;;;;;;;0.20;0.00;;;29.60;99.90;;;;;;21140812;28;20270;-72
2022/06/12 11:31:45;;;;;;;0.20;0.00;;;29.30;99.90;;;;;;21167631;28;20206;-75
2022/06/12 11:42:16;;;;;;;0.20;0.00;;;29.00;99.90;;;;;;21129784;28;20227;-72
2022/06/12 11:52:32;;;;;;;0.20;0.00;;;30.50;99.90;;;;;;21161576;28;20231;-68
2022/06/12 12:02:51;;;;;;;0.20;0.00;;;31.10;99.90;;;;;;21141026;28;20271;-74
2022/06/12 12:12:59;;;;;;;0.20;0.00;;;31.60;99.90;;;;;;21131963;28;20184;-71
2022/06/12 12:23:09;;;;;;;0.20;0.00;;;31.30;99.90;;;;;;21128594;28;20295;-74
2022/06/12 12:33:17;;;;;;;0.20;0.00;;;32.00;99.90;;;;;;21131339;28;20214;-73
2022/06/12 12:43:22;;;;;;;0.20;0.00;;;32.30;99.90;;;;;;21087658;28;20238;-72
2022/06/12 12:53:28;;;;;;;0.20;0.00;;;32.10;99.90;;;;;;21134728;28;20192;-72
2022/06/12 13:03:39;;;;;;;0.20;0.00;;;32.60;99.90;;;;;;21111979;28;20220;-74
2022/06/12 13:14:02;;;;;;;0.20;0.00;;;31.60;99.90;;;;;;21124409;28;20176;-72
2022/06/12 13:24:28;;;;;;;0.20;0.00;;;31.50;99.90;;;;;;21134385;28;20266;-73
2022/06/12 13:34:32;;;;;;;0.20;0.00;;;32.60;99.90;;;;;;21146783;28;20219;-74
2022/06/12 13:44:45;;;;;;;0.20;0.00;;;32.20;99.90;;;;;;21144259;28;20231;-74
2022/06/12 13:54:49;;;;;;;0.20;0.00;;;32.70;99.90;;;;;;21126025;28;20245;-74
2022/06/12 14:04:57;;;;;;;0.20;0.00;;;32.50;99.90;;;;;;21142097;28;20276;-74
2022/06/12 14:15:01;;;;;;;0.20;0.00;;;32.60;99.90;;;;;;21126527;28;20236;-73
2022/06/12 14:25:21;;;;;;;0.20;0.00;;;32.60;99.90;;;;;;21122086;28;20231;-74
2022/06/12 14:35:25;;;;;;;0.20;0.00;;;33.10;99.90;;;;;;21139387;28;20247;-75
2022/06/12 14:45:32;;;;;;;0.20;0.00;;;33.30;99.90;;;;;;21140221;28;20239;-73
2022/06/12 14:55:37;;;;;;;0.20;0.00;;;33.90;99.90;;;;;;21138295;28;21290;-72
2022/06/12 15:05:43;;;;;;;0.20;0.00;;;33.50;99.90;;;;;;21138957;28;20235;-75
2022/06/12 15:15:46;;;;;;;0.20;0.00;;;33.70;99.90;;;;;;21120699;28;20291;-71
2022/06/12 15:36:14;;;;;;;0.20;0.00;;;32.90;99.90;;;;;;21114697;28;20240;-71
2022/06/12 15:46:20;;;;;;;0.20;0.00;;;30.60;99.90;;;;;;21107385;28;20231;-73
2022/06/12 15:56:26;;;;;;;0.20;0.00;;;28.60;99.90;;;;;;21122773;28;20210;-72
2022/06/12 16:06:32;;;;;;;0.20;0.00;;;28.00;99.90;;;;;;21105107;28;20268;-72
2022/06/12 16:16:36;;;;;;;0.20;0.00;;;29.70;99.90;;;;;;21119954;28;20239;-72
2022/06/12 16:26:41;;;;;;;0.20;0.00;;;29.20;99.90;;;;;;21124053;28;20256;-74
2022/06/12 16:36:45;;;;;;;0.20;0.00;;;29.20;99.90;;;;;;21113207;28;20212;-72
2022/06/12 16:46:53;;;;;;;0.20;0.00;;;29.20;99.90;;;;;;21121319;28;20284;-73
2022/06/12 16:56:58;;;;;;;0.20;0.00;;;31.10;99.90;;;;;;21120971;28;20196;-72
2022/06/12 17:07:04;;;;;;;0.20;0.00;;;32.30;99.90;;;;;;21114052;28;20216;-72
2022/06/12 17:17:09;;;;;;;0.20;0.00;;;31.30;99.90;;;;;;21139898;28;20295;-72
2022/06/12 17:27:14;;;;;;;0.20;0.00;;;30.50;99.90;;;;;;21120085;28;20287;-72
2022/06/12 17:37:19;;;;;;;0.20;0.00;;;31.60;99.90;;;;;;21138003;28;20207;-71
2022/06/12 17:47:24;;;;;;;0.20;0.00;;;29.90;99.90;;;;;;21134396;28;20292;-72
2022/06/12 17:57:28;;;;;;;0.20;0.00;;;30.60;99.90;;;;;;21141373;28;20188;-72
2022/06/12 18:07:33;;;;;;;0.20;0.00;;;30.40;99.90;;;;;;21142365;28;20239;-73
2022/06/12 18:28:00;;;;;;;0.20;0.00;;;28.30;99.90;;;;;;21115678;28;20212;-72
2022/06/12 18:38:04;;;;;;;0.20;0.00;;;28.40;99.90;;;;;;21104812;28;20251;-72
2022/06/12 18:48:11;;;;;;;0.20;0.00;;;27.80;99.90;;;;;;21139154;28;20283;-72
2022/06/12 18:58:15;;;;;;;0.20;0.10;;;27.20;99.90;;;;;;21121889;28;20232;-72
2022/06/12 19:08:21;;;;;;;0.20;0.10;;;27.30;99.90;;;;;;21138057;28;20246;-71
2022/06/12 19:18:24;;;;;;;0.20;0.00;;;27.10;99.90;;;;;;21134290;28;20307;-69
2022/06/12 19:28:30;;;;;;;0.20;0.00;;;26.80;99.90;;;;;;21134001;28;20276;-72
2022/06/12 19:38:34;;;;;;;0.20;0.00;;;26.60;99.90;;;;;;21133833;28;20207;-70
2022/06/12 19:48:44;;;;;;;0.20;0.00;;;26.30;99.90;;;;;;21146052;28;20238;-73
2022/06/12 19:58:48;;;;;;;0.20;0.00;;;26.00;99.90;;;;;;21140285;28;20226;-72
2022/06/12 20:08:54;;;;;;;0.20;0.10;;;25.40;99.90;;;;;;21135039;28;20299;-71
2022/06/12 20:18:58;;;;;;;0.20;0.10;;;25.20;99.90;;;;;;21114798;28;20290;-71
2022/06/12 20:29:03;;;;;;;0.20;0.10;;;25.40;99.90;;;;;;21134154;28;20246;-72
2022/06/12 20:39:08;;;;;;;0.20;0.00;;;25.60;99.90;;;;;;21132695;28;20223;-71
2022/06/12 20:49:14;;;;;;;0.20;0.05;;;25.60;99.90;;;;;;21134271;28;20275;-71
2022/06/12 20:59:18;;;;;;;0.20;0.00;;;25.60;99.90;;;;;;21133790;28;20198;-70
2022/06/12 21:09:24;;;;;;;0.20;0.00;;;25.80;99.90;;;;;;21135142;28;20307;-72
2022/06/12 21:19:27;;;;;;;0.20;0.10;;;25.80;99.90;;;;;;21113438;28;20248;-72
2022/06/12 21:29:33;;;;;;;0.20;0.00;;;25.40;99.90;;;;;;21098209;28;20212;-71
2022/06/12 21:39:38;;;;;;;0.20;0.10;;;25.10;99.90;;;;;;21110249;28;20256;-71
2022/06/12 21:49:43;;;;;;;0.20;0.00;;;24.90;99.90;;;;;;21127125;28;20239;-71
2022/06/12 21:59:47;;;;;;;0.20;0.00;;;24.70;99.90;;;;;;21141622;28;20200;-71
2022/06/12 22:09:53;;;;;;;0.20;0.00;;;24.70;99.90;;;;;;21128012;28;20300;-71
2022/06/12 22:19:57;;;;;;;0.20;0.00;;;24.80;99.90;;;;;;21147178;28;20300;-71
2022/06/12 22:30:02;;;;;;;0.20;0.00;;;24.70;99.90;;;;;;21145343;28;20279;-72
2022/06/12 22:40:08;;;;;;;0.20;0.00;;;24.80;99.90;;;;;;21141407;28;20295;-72
2022/06/12 22:50:13;;;;;;;0.20;0.10;;;25.20;99.90;;;;;;21143305;28;20288;-72
2022/06/12 23:00:18;;;;;;;0.20;0.00;;;24.90;99.90;;;;;;21142571;28;20251;-72
2022/06/12 23:10:23;;;;;;;0.20;0.00;;;24.90;99.90;;;;;;21125619;28;20224;-72
2022/06/12 23:20:27;;;;;;;0.20;0.00;;;25.10;99.90;;;;;;21141287;28;20228;-72
2022/06/12 23:30:33;;;;;;;0.20;0.10;;;25.00;99.90;;;;;;21140156;28;20275;-73
2022/06/12 23:40:42;;;;;;;0.20;0.00;;;24.40;99.90;;;;;;21125367;28;20229;-74
2022/06/12 23:50:48;;;;;;;0.20;0.00;;;24.00;99.90;;;;;;21126235;28;20243;-74
